Radiosonde details



Informationen :

Serial : X5211268
Type : Vaisala RS41-NG
Date of production : 22.12.2025
Frequency : 404.800MHz
Launchsite : Boise Air Terminal
Nearest town : Idaho City, US (6.7km)

Altitude (Max) : 15028m at 2026-09-02 23:54:25
Speed (Max) : 98km/h at altitude 11247m

Average speed : 61km/h
Average ascent rate : 4m/s
Average descent rate : 0m/s
Ascent rate (Max) : 8.0m/s
Descent rate (Max): 2.2m/s

First frame :
KE7DJD at 2026-09-02 23:05:41 at altitude 1783m (OG: 1741m)
Last frame :
KE7DJD at 2026-09-02 23:54:25 at altitude 15028m (OG: 14986m)

Flighttime : 48m44s
Ascent time : 48m44s
Descent time : 0s
Uptime : -
Killtimer : -

Distance (Straight line distance): 48km

Distance (Route):


Frames : 140


Measurement :

Temperature : -50.9°C
Humidity : 1.4%
Pressure : 0hPa


Vertical profile (SkewT) :


Elevation profile :



Receiving stations :


Receiver Frames First received Last received
KE7DJD 140 2026-09-02 23:05:41 2026-09-02 23:54:25

Share per receiver :



All frames :


Receiver Date Latitude Longitude Direction Speed Altitude Climb Temperature Humidity Pressure Voltage Killtimer Uptime BKT XDATA
KE7DJD2026-09-02 23:54:2543.84872-115.7563162°57km/h15028m5.2m/s-50.9°C1.4%0hPa0V00:00:0000:00:0000:00:00
KE7DJD2026-09-02 23:54:0443.84706-115.7598059°62km/h14927m5.7m/s-50.7°C1.4%0hPa0V00:00:0000:00:0000:00:00
KE7DJD2026-09-02 23:53:4443.84540-115.7637457°60km/h14834m3.7m/s-51.1°C1.4%0hPa0V00:00:0000:00:0000:00:00
KE7DJD2026-09-02 23:53:2343.84332-115.7678452°66km/h14742m3.1m/s-51.1°C1.4%0hPa0V00:00:0000:00:0000:00:00
KE7DJD2026-09-02 23:53:0343.84105-115.7714846°71km/h14654m4.3m/s-51.3°C1.5%0hPa0V00:00:0000:00:0000:00:00
KE7DJD2026-09-02 23:52:4243.83865-115.7750251°68km/h14566m4.8m/s-51.5°C1.5%0hPa0V00:00:0000:00:0000:00:00
KE7DJD2026-09-02 23:52:2243.83660-115.7786158°73km/h14478m4.3m/s-51.2°C1.5%0hPa0V00:00:0000:00:0000:00:00
KE7DJD2026-09-02 23:52:0143.83458-115.7829461°77km/h14388m4.5m/s-51.1°C1.5%0hPa0V00:00:0000:00:0000:00:00
KE7DJD2026-09-02 23:51:4043.83231-115.7872851°68km/h14299m3.8m/s-51.2°C1.5%0hPa0V00:00:0000:00:0000:00:00
KE7DJD2026-09-02 23:51:2043.82979-115.7912850°68km/h14216m4.6m/s-51.8°C1.7%0hPa0V00:00:0000:00:0000:00:00
KE7DJD2026-09-02 23:51:0043.82755-115.7950455°73km/h14133m4.1m/s-51.4°C1.6%0hPa0V00:00:0000:00:0000:00:00
KE7DJD2026-09-02 23:50:4043.82540-115.7984545°64km/h14049m3.5m/s-51.7°C1.8%0hPa0V00:00:0000:00:0000:00:00
KE7DJD2026-09-02 23:50:1943.82353-115.8016752°49km/h13956m3.9m/s-51.3°C1.8%0hPa0V00:00:0000:00:0000:00:00
KE7DJD2026-09-02 23:49:5843.82186-115.8052063°58km/h13863m5.5m/s-51.4°C1.9%0hPa0V00:00:0000:00:0000:00:00
KE7DJD2026-09-02 23:49:3743.82029-115.8095772°55km/h13759m4.3m/s-50.7°C1.9%0hPa0V00:00:0000:00:0000:00:00
KE7DJD2026-09-02 23:49:1743.81880-115.8146774°82km/h13656m3.7m/s-50.2°C1.9%0hPa0V00:00:0000:00:0000:00:00
KE7DJD2026-09-02 23:48:5643.81734-115.8198767°82km/h13576m4.7m/s-50.1°C1.8%0hPa0V00:00:0000:00:0000:00:00
KE7DJD2026-09-02 23:48:3643.81563-115.8251069°89km/h13497m3.5m/s-50.2°C1.8%0hPa0V00:00:0000:00:0000:00:00
KE7DJD2026-09-02 23:48:1543.81354-115.8312663°89km/h13422m2.3m/s-50.5°C1.9%0hPa0V00:00:0000:00:0000:00:00
KE7DJD2026-09-02 23:47:5443.81124-115.8370863°88km/h13347m4.1m/s-50.2°C1.8%0hPa0V00:00:0000:00:0000:00:00
KE7DJD2026-09-02 23:47:3443.80915-115.8423060°78km/h13271m4.4m/s-50.5°C2.0%0hPa0V00:00:0000:00:0000:00:00
KE7DJD2026-09-02 23:47:1343.80686-115.8476659°88km/h13196m2.6m/s-50.8°C2.2%0hPa0V00:00:0000:00:0000:00:00
KE7DJD2026-09-02 23:46:5143.80466-115.8526063°80km/h13122m4.3m/s-51.2°C2.4%0hPa0V00:00:0000:00:0000:00:00
KE7DJD2026-09-02 23:46:3143.80261-115.8572559°77km/h13049m4.2m/s-51.4°C2.9%0hPa0V00:00:0000:00:0000:00:00
KE7DJD2026-09-02 23:46:1043.80056-115.8621060°88km/h12971m5.1m/s-51.4°C3.0%0hPa0V00:00:0000:00:0000:00:00
KE7DJD2026-09-02 23:45:5043.79830-115.8671055°88km/h12890m3.5m/s-51.7°C2.8%0hPa0V00:00:0000:00:0000:00:00
KE7DJD2026-09-02 23:45:2943.79569-115.8724856°82km/h12805m4.2m/s-51.5°C3.0%0hPa0V00:00:0000:00:0000:00:00
KE7DJD2026-09-02 23:45:0943.79342-115.8772360°75km/h12719m4.5m/s-51.6°C3.3%0hPa0V00:00:0000:00:0000:00:00
KE7DJD2026-09-02 23:44:5043.79146-115.8819363°77km/h12628m4.9m/s-51.0°C3.5%0hPa0V00:00:0000:00:0000:00:00
KE7DJD2026-09-02 23:44:2843.78945-115.8865861°78km/h12533m4.2m/s-51.2°C4.1%0hPa0V00:00:0000:00:0000:00:00
KE7DJD2026-09-02 23:44:0743.78728-115.8914661°75km/h12436m5.5m/s-51.2°C5.2%0hPa0V00:00:0000:00:0000:00:00
KE7DJD2026-09-02 23:43:4743.78538-115.8959956°73km/h12343m3.5m/s-51.5°C6.8%0hPa0V00:00:0000:00:0000:00:00
KE7DJD2026-09-02 23:43:2743.78356-115.9005463°73km/h12251m3.0m/s-51.8°C8.4%0hPa0V00:00:0000:00:0000:00:00
KE7DJD2026-09-02 23:43:0643.78195-115.9056169°78km/h12158m5.4m/s-51.5°C10.7%0hPa0V00:00:0000:00:0000:00:00
KE7DJD2026-09-02 23:42:4543.78020-115.9110770°86km/h12067m4.4m/s-52.3°C10.7%0hPa0V00:00:0000:00:0000:00:00
KE7DJD2026-09-02 23:42:2543.77827-115.9166270°91km/h11984m4.5m/s-51.9°C9.1%0hPa0V00:00:0000:00:0000:00:00
KE7DJD2026-09-02 23:42:0543.77631-115.9223861°88km/h11908m3.3m/s-52.5°C10.1%0hPa0V00:00:0000:00:0000:00:00
KE7DJD2026-09-02 23:41:4543.77423-115.9278659°84km/h11832m3.4m/s-53.3°C11.6%0hPa0V00:00:0000:00:0000:00:00
KE7DJD2026-09-02 23:41:2443.77174-115.9332759°88km/h11750m3.3m/s-53.2°C13.3%0hPa0V00:00:0000:00:0000:00:00
KE7DJD2026-09-02 23:41:0343.76922-115.9387359°93km/h11674m3.9m/s-53.7°C16.0%0hPa0V00:00:0000:00:0000:00:00
KE7DJD2026-09-02 23:40:4243.76650-115.9440054°86km/h11596m4.7m/s-54.7°C25.6%0hPa0V00:00:0000:00:0000:00:00
KE7DJD2026-09-02 23:40:2143.76351-115.9489949°84km/h11511m5.1m/s-55.2°C39.1%0hPa0V00:00:0000:00:0000:00:00
KE7DJD2026-09-02 23:40:0143.76040-115.9537348°95km/h11429m4.1m/s-55.9°C67.3%0hPa0V00:00:0000:00:0000:00:00
KE7DJD2026-09-02 23:39:4143.75699-115.9583747°86km/h11341m3.4m/s-56.4°C63.5%0hPa0V00:00:0000:00:0000:00:00
KE7DJD2026-09-02 23:39:2143.75350-115.9629848°97km/h11247m4.5m/s-56.0°C58.7%0hPa0V00:00:0000:00:0000:00:00
KE7DJD2026-09-02 23:39:0043.74959-115.9678046°95km/h11141m7.3m/s-55.3°C58.6%0hPa0V00:00:0000:00:0000:00:00
KE7DJD2026-09-02 23:38:3943.74605-115.9724547°86km/h11036m4.7m/s-54.4°C59.0%0hPa0V00:00:0000:00:0000:00:00
KE7DJD2026-09-02 23:38:1943.74288-115.9769346°84km/h10940m4.2m/s-53.6°C60.1%0hPa0V00:00:0000:00:0000:00:00
KE7DJD2026-09-02 23:37:5843.73967-115.9814551°84km/h10843m3.5m/s-52.6°C58.5%0hPa0V00:00:0000:00:0000:00:00
KE7DJD2026-09-02 23:37:3843.73676-115.9857252°88km/h10755m4.8m/s-51.9°C59.1%0hPa0V00:00:0000:00:0000:00:00
KE7DJD2026-09-02 23:37:1843.73389-115.9899341°84km/h10665m4.0m/s-51.2°C63.2%0hPa0V00:00:0000:00:0000:00:00
KE7DJD2026-09-02 23:36:5743.73072-115.9940939°86km/h10570m4.4m/s-50.4°C62.2%0hPa0V00:00:0000:00:0000:00:00
KE7DJD2026-09-02 23:36:3743.72750-115.9982943°86km/h10483m3.9m/s-50.2°C66.3%0hPa0V00:00:0000:00:0000:00:00
KE7DJD2026-09-02 23:36:1743.72421-116.0024646°84km/h10394m5.6m/s-49.4°C67.5%0hPa0V00:00:0000:00:0000:00:00
KE7DJD2026-09-02 23:35:5643.72097-116.0067445°77km/h10304m2.9m/s-48.8°C65.6%0hPa0V00:00:0000:00:0000:00:00
KE7DJD2026-09-02 23:35:3643.71783-116.0107253°86km/h10214m4.7m/s-48.0°C66.2%0hPa0V00:00:0000:00:0000:00:00
KE7DJD2026-09-02 23:35:1643.71470-116.0149245°86km/h10114m6.3m/s-47.1°C65.7%0hPa0V00:00:0000:00:0000:00:00
KE7DJD2026-09-02 23:34:5443.71147-116.0189038°78km/h10005m5.3m/s-46.0°C71.1%0hPa0V00:00:0000:00:0000:00:00
KE7DJD2026-09-02 23:34:3343.70816-116.0226936°75km/h9904m3.4m/s-45.1°C72.1%0hPa0V00:00:0000:00:0000:00:00
KE7DJD2026-09-02 23:34:1343.70503-116.0261442°82km/h9813m4.1m/s-44.3°C72.5%0hPa0V00:00:0000:00:0000:00:00
KE7DJD2026-09-02 23:33:5343.70184-116.0298641°78km/h9716m4.7m/s-43.3°C71.8%0hPa0V00:00:0000:00:0000:00:00
KE7DJD2026-09-02 23:33:3143.69862-116.0336138°77km/h9618m2.3m/s-42.5°C69.4%0hPa0V00:00:0000:00:0000:00:00
KE7DJD2026-09-02 23:33:1143.69564-116.0371939°82km/h9527m4.2m/s-41.6°C67.3%0hPa0V00:00:0000:00:0000:00:00
KE7DJD2026-09-02 23:32:5143.69249-116.0408343°77km/h9428m4.0m/s-40.6°C68.2%0hPa0V00:00:0000:00:0000:00:00
KE7DJD2026-09-02 23:32:2943.68941-116.0443638°78km/h9327m4.0m/s-39.8°C68.0%0hPa0V00:00:0000:00:0000:00:00
KE7DJD2026-09-02 23:32:0843.68639-116.0477242°66km/h9224m5.4m/s-38.9°C68.7%0hPa0V00:00:0000:00:0000:00:00
KE7DJD2026-09-02 23:31:4843.68363-116.0509344°71km/h9129m4.2m/s-38.1°C69.6%0hPa0V00:00:0000:00:0000:00:00
KE7DJD2026-09-02 23:31:2743.68061-116.0544735°71km/h9031m3.8m/s-37.3°C68.1%0hPa0V00:00:0000:00:0000:00:00
KE7DJD2026-09-02 23:31:0743.67796-116.0577643°86km/h8925m4.6m/s-36.4°C68.3%0hPa0V00:00:0000:00:0000:00:00
KE7DJD2026-09-02 23:30:4643.67504-116.0611135°73km/h8825m4.2m/s-35.5°C67.9%0hPa0V00:00:0000:00:0000:00:00
KE7DJD2026-09-02 23:30:2543.67227-116.0645547°73km/h8728m5.3m/s-34.8°C71.5%0hPa0V00:00:0000:00:0000:00:00
KE7DJD2026-09-02 23:30:0543.66964-116.0677044°66km/h8638m4.7m/s-34.1°C71.4%0hPa0V00:00:0000:00:0000:00:00
KE7DJD2026-09-02 23:29:4443.66687-116.0710443°64km/h8537m4.5m/s-33.2°C73.0%0hPa0V00:00:0000:00:0000:00:00
KE7DJD2026-09-02 23:29:2343.66435-116.0738440°53km/h8443m4.2m/s-32.5°C73.5%0hPa0V00:00:0000:00:0000:00:00
KE7DJD2026-09-02 23:29:0243.66201-116.0768539°64km/h8349m5.2m/s-31.8°C71.3%0hPa0V00:00:0000:00:0000:00:00
KE7DJD2026-09-02 23:28:4143.65985-116.0797947°60km/h8242m5.6m/s-30.9°C70.8%0hPa0V00:00:0000:00:0000:00:00
KE7DJD2026-09-02 23:28:2043.65775-116.0827246°58km/h8143m3.8m/s-30.1°C71.2%0hPa0V00:00:0000:00:0000:00:00
KE7DJD2026-09-02 23:27:5943.65570-116.0856643°57km/h8053m3.3m/s-29.4°C72.4%0hPa0V00:00:0000:00:0000:00:00
KE7DJD2026-09-02 23:27:1843.65186-116.0912636°46km/h7864m3.3m/s-28.2°C73.8%0hPa0V00:00:0000:00:0000:00:00
KE7DJD2026-09-02 23:26:5843.65027-116.0939260°47km/h7766m5.2m/s-27.7°C74.1%0hPa0V00:00:0000:00:0000:00:00
KE7DJD2026-09-02 23:26:3743.64889-116.0967455°44km/h7670m5.3m/s-27.0°C75.5%0hPa0V00:00:0000:00:0000:00:00
KE7DJD2026-09-02 23:26:1643.64753-116.0996758°46km/h7574m4.2m/s-26.3°C74.8%0hPa0V00:00:0000:00:0000:00:00
KE7DJD2026-09-02 23:25:5543.64632-116.1025873°58km/h7476m3.6m/s-25.6°C75.0%0hPa0V00:00:0000:00:0000:00:00
KE7DJD2026-09-02 23:25:3443.64528-116.1054573°35km/h7369m4.8m/s-24.8°C75.2%0hPa0V00:00:0000:00:0000:00:00
KE7DJD2026-09-02 23:25:1343.64420-116.1082264°42km/h7268m4.2m/s-23.9°C73.5%0hPa0V00:00:0000:00:0000:00:00
KE7DJD2026-09-02 23:24:5343.64311-116.1110061°47km/h7171m5.6m/s-23.2°C72.2%0hPa0V00:00:0000:00:0000:00:00
KE7DJD2026-09-02 23:24:3343.64213-116.1136860°38km/h7059m4.9m/s-22.3°C70.4%0hPa0V00:00:0000:00:0000:00:00
KE7DJD2026-09-02 23:24:1343.64115-116.1161866°47km/h6959m4.7m/s-21.5°C68.3%0hPa0V00:00:0000:00:0000:00:00
KE7DJD2026-09-02 23:23:5343.64029-116.1187759°40km/h6863m4.1m/s-20.8°C68.1%0hPa0V00:00:0000:00:0000:00:00
KE7DJD2026-09-02 23:23:3343.63940-116.1212160°40km/h6775m4.5m/s-20.3°C72.0%0hPa0V00:00:0000:00:0000:00:00
KE7DJD2026-09-02 23:23:1343.63853-116.1238566°38km/h6685m3.3m/s-19.6°C71.6%0hPa0V00:00:0000:00:0000:00:00
KE7DJD2026-09-02 23:22:5143.63754-116.1265165°38km/h6601m4.4m/s-19.0°C71.0%0hPa0V00:00:0000:00:0000:00:00
KE7DJD2026-09-02 23:22:3143.63661-116.1289772°40km/h6526m3.5m/s-18.5°C72.8%0hPa0V00:00:0000:00:0000:00:00
KE7DJD2026-09-02 23:22:1143.63565-116.1314868°42km/h6455m3.7m/s-18.1°C68.7%0hPa0V00:00:0000:00:0000:00:00
KE7DJD2026-09-02 23:21:5043.63468-116.1342856°42km/h6377m2.9m/s-17.6°C68.2%0hPa0V00:00:0000:00:0000:00:00
KE7DJD2026-09-02 23:21:3043.63366-116.1368968°42km/h6308m2.2m/s-17.2°C70.7%0hPa0V00:00:0000:00:0000:00:00
KE7DJD2026-09-02 23:21:1043.63262-116.1393360°42km/h6238m3.1m/s-16.8°C70.4%0hPa0V00:00:0000:00:0000:00:00
KE7DJD2026-09-02 23:20:4943.63157-116.1417153°40km/h6163m3.6m/s-16.3°C73.0%0hPa0V00:00:0000:00:0000:00:00
KE7DJD2026-09-02 23:20:2843.63042-116.1439261°38km/h6093m3.2m/s-16.1°C76.1%0hPa0V00:00:0000:00:0000:00:00
KE7DJD2026-09-02 23:20:0843.62935-116.1457948°35km/h6024m4.0m/s-15.6°C74.6%0hPa0V00:00:0000:00:0000:00:00
KE7DJD2026-09-02 23:19:4743.62829-116.1480465°37km/h5958m2.9m/s-15.3°C76.5%0hPa0V00:00:0000:00:0000:00:00
KE7DJD2026-09-02 23:19:2643.62738-116.1502464°42km/h5892m2.6m/s-14.8°C75.3%0hPa0V00:00:0000:00:0000:00:00
KE7DJD2026-09-02 23:19:0543.62644-116.1525367°38km/h5820m2.2m/s-14.2°C70.7%0hPa0V00:00:0000:00:0000:00:00
KE7DJD2026-09-02 23:18:4543.62558-116.1548173°35km/h5753m3.1m/s-14.2°C74.8%0hPa0V00:00:0000:00:0000:00:00
KE7DJD2026-09-02 23:18:2543.62451-116.1571958°40km/h5681m4.0m/s-14.1°C86.0%0hPa0V00:00:0000:00:0000:00:00
KE7DJD2026-09-02 23:18:0543.62327-116.1600265°55km/h5601m4.0m/s-14.3°C72.9%0hPa0V00:00:0000:00:0000:00:00
KE7DJD2026-09-02 23:17:4443.62178-116.1635356°55km/h5511m3.3m/s-13.7°C36.0%0hPa0V00:00:0000:00:0000:00:00
KE7DJD2026-09-02 23:17:2343.62035-116.1668467°55km/h5406m5.7m/s-13.4°C28.8%0hPa0V00:00:0000:00:0000:00:00
KE7DJD2026-09-02 23:17:0343.61849-116.1703456°68km/h5298m6.7m/s-12.4°C27.6%0hPa0V00:00:0000:00:0000:00:00
KE7DJD2026-09-02 23:16:4243.61654-116.1732957°57km/h5181m4.4m/s-11.7°C28.0%0hPa0V00:00:0000:00:0000:00:00
KE7DJD2026-09-02 23:16:2143.61432-116.1762148°60km/h5073m4.7m/s-10.7°C25.8%0hPa0V00:00:0000:00:0000:00:00
KE7DJD2026-09-02 23:16:0143.61221-116.1789246°57km/h4973m5.0m/s-9.9°C20.4%0hPa0V00:00:0000:00:0000:00:00
KE7DJD2026-09-02 23:15:4043.60982-116.1816549°66km/h4866m5.8m/s-9.1°C10.8%0hPa0V00:00:0000:00:0000:00:00
KE7DJD2026-09-02 23:15:1943.60752-116.1838229°64km/h4759m5.6m/s-8.3°C8.6%0hPa0V00:00:0000:00:0000:00:00
KE7DJD2026-09-02 23:14:5843.60486-116.1860532°64km/h4639m4.5m/s-7.5°C8.3%0hPa0V00:00:0000:00:0000:00:00
KE7DJD2026-09-02 23:14:3743.60223-116.1883544°55km/h4546m4.7m/s-6.8°C11.7%0hPa0V00:00:0000:00:0000:00:00
KE7DJD2026-09-02 23:14:1643.59970-116.1910339°49km/h4435m4.1m/s-6.0°C16.2%0hPa0V00:00:0000:00:0000:00:00
KE7DJD2026-09-02 23:13:5643.59766-116.1932445°51km/h4346m4.9m/s-5.8°C27.4%0hPa0V00:00:0000:00:0000:00:00
KE7DJD2026-09-02 23:13:3543.59587-116.1960147°55km/h4266m3.1m/s-5.2°C29.6%0hPa0V00:00:0000:00:0000:00:00
KE7DJD2026-09-02 23:13:1443.59418-116.1988162°46km/h4191m3.1m/s-4.9°C29.8%0hPa0V00:00:0000:00:0000:00:00
KE7DJD2026-09-02 23:12:5443.59254-116.2012336°26km/h4085m6.0m/s-6.0°C64.9%0hPa0V00:00:0000:00:0000:00:00
KE7DJD2026-09-02 23:12:3343.59075-116.20219356°35km/h3974m4.3m/s-6.1°C85.6%0hPa0V00:00:0000:00:0000:00:00
KE7DJD2026-09-02 23:12:1343.58932-116.20256344°26km/h3875m3.9m/s-5.5°C89.0%0hPa0V00:00:0000:00:0000:00:00
KE7DJD2026-09-02 23:11:5243.58748-116.20255342°31km/h3750m6.9m/s-4.3°C83.5%0hPa0V00:00:0000:00:0000:00:00
KE7DJD2026-09-02 23:11:3143.58594-116.20229361°16km/h3648m3.4m/s-3.3°C80.0%0hPa0V00:00:0000:00:0000:00:00
KE7DJD2026-09-02 23:11:1043.58441-116.20218334°35km/h3540m5.9m/s-2.4°C75.7%0hPa0V00:00:0000:00:0000:00:00
KE7DJD2026-09-02 23:10:4943.58248-116.20175334°20km/h3446m3.2m/s-1.4°C71.7%0hPa0V00:00:0000:00:0000:00:00
KE7DJD2026-09-02 23:10:1043.57966-116.2016025°29km/h3231m6.2m/s0.6°C64.2%0hPa0V00:00:0000:00:0000:00:00
KE7DJD2026-09-02 23:09:4843.57824-116.20119333°31km/h3119m4.1m/s1.7°C60.4%0hPa0V00:00:0000:00:0000:00:00
KE7DJD2026-09-02 23:09:2743.57670-116.2012642km/h3021m6.2m/s2.6°C56.9%0hPa0V00:00:0000:00:0000:00:00
KE7DJD2026-09-02 23:09:0643.57524-116.20148358°38km/h2922m3.9m/s3.5°C54.9%0hPa0V00:00:0000:00:0000:00:00
KE7DJD2026-09-02 23:08:4643.57368-116.20178347°33km/h2819m4.0m/s4.5°C52.6%0hPa0V00:00:0000:00:0000:00:00
KE7DJD2026-09-02 23:08:2543.57217-116.20197354°29km/h2713m4.6m/s5.4°C51.0%0hPa0V00:00:0000:00:0000:00:00
KE7DJD2026-09-02 23:08:0543.57123-116.2021622°13km/h2605m5.0m/s6.2°C52.5%0hPa0V00:00:0000:00:0000:00:00
KE7DJD2026-09-02 23:07:4443.57014-116.2025949°24km/h2494m5.5m/s7.1°C52.0%0hPa0V00:00:0000:00:0000:00:00
KE7DJD2026-09-02 23:07:2343.56953-116.2034743°26km/h2387m5.2m/s8.2°C47.4%0hPa0V00:00:0000:00:0000:00:00
KE7DJD2026-09-02 23:06:4243.56883-116.2048457°18km/h2163m5.1m/s10.4°C43.9%0hPa0V00:00:0000:00:0000:00:00
KE7DJD2026-09-02 23:06:2243.56872-116.2054686°22km/h2038m5.6m/s11.6°C41.1%0hPa0V00:00:0000:00:0000:00:00
KE7DJD2026-09-02 23:06:0143.56876-116.2060525°18km/h1914m4.7m/s12.9°C38.3%0hPa0V00:00:0000:00:0000:00:00
KE7DJD2026-09-02 23:05:4143.56852-116.2064415km/h1783m8.0m/s14.1°C35.7%0hPa0V00:00:0000:00:0000:00:00


GPX KML Map

© wettersonde.net (DO2JMG) - 2026  -  -